Time;durP1;ratioP1;P1;durP2;ratioP2;P2;SDS_P1;SDS_P2;PMS_P1;PMS_P2;Temp;Humidity;BMP_temperature;BMP_pressure;BME280_temperature;BME280_humidity;BME280_pressure;Samples;Min_cycle;Max_cycle;Signal;HPM_P1;HPM_P2
2022/08/18 00:02:15;;;;;;;20.33;9.27;;;18.80;99.90;;;;;;5035979;28;20049;-65
2022/08/18 00:04:41;;;;;;;28.80;8.90;;;18.80;99.90;;;;;;5036066;28;20037;-65
2022/08/18 00:07:13;;;;;;;19.80;9.07;;;18.80;99.90;;;;;;5034630;28;20132;-65
2022/08/18 00:09:40;;;;;;;29.30;9.77;;;18.80;99.90;;;;;;5017549;28;20049;-65
2022/08/18 00:12:16;;;;;;;22.70;9.13;;;18.80;99.90;;;;;;5035393;28;20045;-64
2022/08/18 00:14:42;;;;;;;20.23;10.43;;;18.80;99.90;;;;;;5035844;28;20096;-65
2022/08/18 00:17:08;;;;;;;23.83;9.47;;;18.80;99.90;;;;;;5035778;28;20096;-65
2022/08/18 00:19:34;;;;;;;23.43;9.03;;;18.80;99.90;;;;;;5034923;28;20045;-65
2022/08/18 00:22:00;;;;;;;24.30;9.33;;;18.80;99.90;;;;;;5034845;28;20048;-65
2022/08/18 00:24:25;;;;;;;25.00;9.80;;;18.80;99.90;;;;;;5017447;28;20049;-65
2022/08/18 00:26:51;;;;;;;20.17;8.20;;;18.90;99.90;;;;;;5017208;28;20080;-65
2022/08/18 00:29:17;;;;;;;21.57;8.37;;;18.90;99.90;;;;;;5017376;28;20095;-65
2022/08/18 00:31:43;;;;;;;23.80;11.07;;;18.90;99.90;;;;;;5034754;28;20398;-65
2022/08/18 00:34:09;;;;;;;24.97;8.50;;;18.90;99.90;;;;;;5034680;28;20527;-64
2022/08/18 00:36:34;;;;;;;16.30;7.10;;;18.90;99.90;;;;;;5034599;28;20057;-65
2022/08/18 00:39:00;;;;;;;18.53;7.40;;;18.90;99.90;;;;;;5034552;28;20050;-65
2022/08/18 00:41:26;;;;;;;21.97;7.47;;;18.80;99.90;;;;;;5034472;28;20046;-65
2022/08/18 00:43:54;;;;;;;23.30;9.10;;;18.80;99.90;;;;;;5016799;28;20049;-65
2022/08/18 00:46:22;;;;;;;23.50;8.90;;;18.90;99.90;;;;;;5034294;28;20063;-68
2022/08/18 00:48:48;;;;;;;18.30;8.23;;;18.80;99.90;;;;;;5034919;28;20104;-65
2022/08/18 00:51:20;;;;;;;21.10;8.27;;;18.90;99.90;;;;;;5034524;28;20041;-64
2022/08/18 00:54:24;;;;;;;21.37;8.70;;;18.90;99.90;;;;;;5016976;28;20465;-65
2022/08/18 00:56:55;;;;;;;20.37;8.57;;;18.90;99.90;;;;;;4954106;29;20118;-64
2022/08/18 00:59:41;;;;;;;23.43;9.93;;;18.90;99.90;;;;;;5004056;28;20063;-68
2022/08/18 01:02:22;;;;;;;19.33;9.20;;;18.90;99.90;;;;;;5016488;28;20077;-64
2022/08/18 01:05:05;;;;;;;21.10;8.90;;;18.90;99.90;;;;;;5017546;28;20049;-65
2022/08/18 01:07:45;;;;;;;22.97;10.20;;;18.90;99.90;;;;;;5017428;28;20347;-65
2022/08/18 01:10:17;;;;;;;25.77;9.20;;;19.00;99.90;;;;;;5034047;28;20050;-65
2022/08/18 01:12:44;;;;;;;22.00;10.17;;;18.90;99.90;;;;;;5034774;28;20046;-65
2022/08/18 01:15:12;;;;;;;25.27;10.30;;;19.00;99.90;;;;;;5033975;28;20060;-64
2022/08/18 01:23:18;;;;;;;22.13;11.33;;;19.00;99.90;;;;;;5033790;28;20019;-65
2022/08/18 01:25:59;;;;;;;21.37;10.87;;;19.00;99.90;;;;;;5033478;28;20552;-65
2022/08/18 01:28:31;;;;;;;29.27;10.70;;;19.00;99.90;;;;;;5016306;28;20049;-66
2022/08/18 01:30:58;;;;;;;25.60;11.73;;;19.00;99.90;;;;;;5033600;28;20045;-65
2022/08/18 01:33:36;;;;;;;24.17;11.10;;;19.00;99.90;;;;;;5033597;28;20048;-65
2022/08/18 01:36:17;;;;;;;23.70;11.53;;;19.00;99.90;;;;;;5033671;28;20092;-65
2022/08/18 01:38:49;;;;;;;21.80;12.17;;;19.00;99.90;;;;;;5033538;28;20084;-65
2022/08/18 01:41:15;;;;;;;26.03;11.80;;;19.00;99.90;;;;;;5016385;28;20053;-65
2022/08/18 01:43:41;;;;;;;26.33;12.23;;;19.00;99.90;;;;;;5033528;28;20382;-65
2022/08/18 01:46:07;;;;;;;26.30;13.10;;;19.00;99.90;;;;;;5033767;28;20060;-65
2022/08/18 01:48:35;;;;;;;19.23;12.10;;;19.00;99.90;;;;;;5033994;28;20136;-65
2022/08/18 01:51:04;;;;;;;23.03;11.73;;;19.00;99.90;;;;;;5033428;28;20045;-64
2022/08/18 01:53:30;;;;;;;28.53;13.53;;;19.00;99.90;;;;;;5033613;28;20056;-65
2022/08/18 01:55:56;;;;;;;24.50;13.07;;;19.00;99.90;;;;;;5033406;28;20081;-65
2022/08/18 01:58:26;;;;;;;21.97;12.07;;;19.00;99.90;;;;;;5033344;28;20045;-65
2022/08/18 02:00:57;;;;;;;20.67;13.10;;;19.00;99.90;;;;;;5033503;28;20050;-64
2022/08/18 02:03:27;;;;;;;29.10;13.73;;;19.00;99.90;;;;;;5034070;28;20132;-65
2022/08/18 02:05:58;;;;;;;26.97;14.03;;;19.00;99.90;;;;;;5033269;28;20085;-65
2022/08/18 02:08:24;;;;;;;21.50;13.03;;;19.00;99.90;;;;;;5033364;28;20052;-65
2022/08/18 02:10:50;;;;;;;24.30;14.07;;;19.00;99.90;;;;;;5033254;28;20041;-65
2022/08/18 02:13:15;;;;;;;20.07;12.47;;;19.00;99.90;;;;;;5033168;28;20041;-64
2022/08/18 02:15:41;;;;;;;23.60;12.63;;;19.00;99.90;;;;;;5033182;28;20049;-65
2022/08/18 02:18:16;;;;;;;22.60;12.93;;;19.00;99.90;;;;;;5033724;28;20461;-65
2022/08/18 02:20:42;;;;;;;23.37;13.60;;;19.10;99.90;;;;;;5033185;28;20543;-65
2022/08/18 02:23:10;;;;;;;24.97;13.87;;;19.00;99.90;;;;;;5033065;28;20046;-65
2022/08/18 02:25:35;;;;;;;21.27;13.67;;;19.00;99.90;;;;;;5033147;28;20041;-65
2022/08/18 02:28:02;;;;;;;28.37;14.93;;;19.00;99.90;;;;;;5033177;28;20060;-64
2022/08/18 02:30:29;;;;;;;28.43;14.43;;;19.00;99.90;;;;;;5033275;28;20508;-64
2022/08/18 02:32:57;;;;;;;25.33;15.20;;;19.00;99.90;;;;;;5036982;28;20405;-65
2022/08/18 02:35:23;;;;;;;21.67;15.00;;;19.00;99.90;;;;;;5037181;28;20125;-65
2022/08/18 02:37:49;;;;;;;27.67;14.03;;;19.00;99.90;;;;;;5036836;28;20049;-65
2022/08/18 02:40:16;;;;;;;22.37;13.63;;;19.10;99.90;;;;;;5019400;28;20054;-64
2022/08/18 02:42:43;;;;;;;21.17;12.83;;;19.10;99.90;;;;;;5036667;28;20112;-65
2022/08/18 02:45:09;;;;;;;25.50;12.83;;;19.10;99.90;;;;;;5036703;28;20049;-65
2022/08/18 02:47:35;;;;;;;25.10;13.67;;;19.00;99.90;;;;;;5018823;28;20382;-65
2022/08/18 02:50:00;;;;;;;19.37;12.33;;;19.10;99.90;;;;;;5019774;28;20052;-65
2022/08/18 02:52:32;;;;;;;31.20;14.10;;;19.00;99.90;;;;;;5036580;28;20041;-64
2022/08/18 02:55:02;;;;;;;25.97;13.50;;;19.10;99.90;;;;;;5003464;28;20053;-64
2022/08/18 02:57:29;;;;;;;19.50;13.50;;;19.10;99.90;;;;;;5037088;28;20064;-65
2022/08/18 02:59:54;;;;;;;21.73;13.43;;;19.00;99.90;;;;;;5036405;28;20048;-65
2022/08/18 03:02:21;;;;;;;21.03;11.57;;;19.10;99.90;;;;;;5018707;28;20046;-64
2022/08/18 03:04:48;;;;;;;16.07;11.10;;;19.10;99.90;;;;;;5037125;28;20061;-64
2022/08/18 03:07:14;;;;;;;16.53;11.50;;;19.00;99.90;;;;;;5036353;28;20109;-64
2022/08/18 03:09:40;;;;;;;17.27;10.97;;;19.10;99.90;;;;;;5036449;28;20053;-65
2022/08/18 03:12:07;;;;;;;21.20;11.40;;;19.10;99.90;;;;;;5036464;28;20191;-65
2022/08/18 03:14:34;;;;;;;20.03;11.63;;;19.00;99.90;;;;;;5036365;28;20050;-65
2022/08/18 03:17:04;;;;;;;14.33;10.67;;;19.00;99.90;;;;;;5018377;28;20053;-65
2022/08/18 03:19:30;;;;;;;18.60;12.17;;;19.00;99.90;;;;;;5036005;28;20052;-65
2022/08/18 03:21:58;;;;;;;20.80;10.47;;;19.00;99.90;;;;;;5035856;28;20068;-64
2022/08/18 03:24:25;;;;;;;22.50;12.53;;;19.00;99.90;;;;;;5035990;28;20456;-65
2022/08/18 03:26:52;;;;;;;21.37;11.67;;;18.90;99.90;;;;;;5036403;28;20159;-65
2022/08/18 03:29:20;;;;;;;18.70;11.27;;;19.00;99.90;;;;;;5018343;28;20081;-64
2022/08/18 03:31:47;;;;;;;17.10;13.00;;;19.00;99.90;;;;;;5035797;28;20124;-64
2022/08/18 03:34:14;;;;;;;17.87;11.30;;;19.00;99.90;;;;;;5035752;28;20089;-64
2022/08/18 03:36:40;;;;;;;15.47;10.30;;;19.00;99.90;;;;;;5036235;28;20087;-65
2022/08/18 03:39:11;;;;;;;21.93;11.63;;;19.00;99.90;;;;;;5035960;28;20046;-64
2022/08/18 03:41:42;;;;;;;13.87;10.20;;;19.00;99.90;;;;;;5035354;28;20429;-65
2022/08/18 03:44:09;;;;;;;14.03;10.77;;;19.00;99.90;;;;;;5017526;28;20124;-64
2022/08/18 03:46:35;;;;;;;16.80;11.10;;;19.00;99.90;;;;;;5035410;28;20059;-65
2022/08/18 03:49:01;;;;;;;15.40;10.10;;;19.00;99.90;;;;;;5035957;28;20045;-64
2022/08/18 03:51:30;;;;;;;15.63;10.50;;;19.00;99.90;;;;;;5036001;28;20515;-64
2022/08/18 03:53:59;;;;;;;16.57;11.20;;;19.00;99.90;;;;;;5035361;28;20549;-64
2022/08/18 03:56:32;;;;;;;16.33;10.67;;;19.00;99.90;;;;;;5035878;28;20044;-64
2022/08/18 03:59:04;;;;;;;14.00;9.97;;;19.00;99.90;;;;;;5035421;28;20053;-64
2022/08/18 04:01:32;;;;;;;16.77;10.97;;;19.00;99.90;;;;;;5035523;28;20053;-64
2022/08/18 04:04:02;;;;;;;17.30;10.80;;;19.00;99.90;;;;;;5035162;28;20087;-64
2022/08/18 04:06:33;;;;;;;16.87;11.67;;;18.90;99.90;;;;;;5035415;28;20050;-64
2022/08/18 04:09:03;;;;;;;19.57;11.40;;;18.90;99.90;;;;;;5035368;28;20249;-64
2022/08/18 04:11:32;;;;;;;15.10;11.57;;;19.00;99.90;;;;;;5035961;28;20073;-64
2022/08/18 04:13:58;;;;;;;17.23;11.97;;;19.00;99.90;;;;;;5017330;28;20042;-65
2022/08/18 04:16:31;;;;;;;14.87;11.60;;;19.00;99.90;;;;;;5035031;28;20386;-64
2022/08/18 04:19:02;;;;;;;17.17;12.63;;;19.00;99.90;;;;;;5017608;28;20050;-64
2022/08/18 04:21:31;;;;;;;19.13;12.53;;;19.00;99.90;;;;;;5035098;28;20041;-64
2022/08/18 04:24:01;;;;;;;18.23;13.97;;;19.00;99.90;;;;;;5034753;28;20481;-65
2022/08/18 04:26:27;;;;;;;13.57;10.87;;;19.00;99.90;;;;;;5035300;28;20373;-65
2022/08/18 04:28:53;;;;;;;20.47;15.27;;;19.00;99.90;;;;;;5017476;28;20045;-65
2022/08/18 04:31:23;;;;;;;20.40;14.50;;;19.00;99.90;;;;;;5034712;28;20248;-65
2022/08/18 04:33:49;;;;;;;22.03;15.00;;;19.00;99.90;;;;;;5034653;28;20515;-65
2022/08/18 04:36:16;;;;;;;20.60;15.77;;;19.00;99.90;;;;;;5016815;28;20405;-65
2022/08/18 04:38:42;;;;;;;21.33;16.87;;;19.00;99.90;;;;;;5034573;28;20140;-65
2022/08/18 04:41:09;;;;;;;19.30;14.90;;;19.00;99.90;;;;;;5034462;28;20049;-65
2022/08/18 04:43:35;;;;;;;18.53;14.63;;;19.00;99.90;;;;;;5034696;28;20120;-65
2022/08/18 04:46:01;;;;;;;21.50;15.07;;;19.00;99.90;;;;;;5034637;28;20148;-65
2022/08/18 04:48:32;;;;;;;20.47;14.80;;;19.00;99.90;;;;;;5034380;28;20057;-65
2022/08/18 04:51:11;;;;;;;20.17;14.13;;;19.00;99.90;;;;;;5034415;28;20053;-65
2022/08/18 04:53:46;;;;;;;22.33;13.60;;;19.00;99.90;;;;;;5035032;28;20124;-65
2022/08/18 04:56:35;;;;;;;21.20;13.30;;;19.00;99.90;;;;;;5035031;28;20037;-65
2022/08/18 04:59:09;;;;;;;20.20;13.87;;;19.00;99.90;;;;;;5034363;28;20041;-66
2022/08/18 05:01:41;;;;;;;19.88;13.65;;;19.00;99.90;;;;;;5034946;28;20120;-66
2022/08/18 05:04:07;;;;;;;22.07;13.10;;;19.00;99.90;;;;;;5034358;28;20041;-65
2022/08/18 05:06:34;;;;;;;22.30;13.43;;;19.00;99.90;;;;;;5034857;28;20128;-65
2022/08/18 05:09:04;;;;;;;19.13;13.83;;;19.00;99.90;;;;;;5033954;28;20374;-65
2022/08/18 05:11:33;;;;;;;17.97;12.43;;;19.00;99.90;;;;;;5033968;28;20099;-65
2022/08/18 05:14:05;;;;;;;15.83;12.43;;;19.00;99.90;;;;;;5033904;28;20046;-65
2022/08/18 05:16:35;;;;;;;21.13;13.83;;;19.00;99.90;;;;;;5034721;28;20049;-66
2022/08/18 05:19:07;;;;;;;21.97;14.23;;;19.10;99.90;;;;;;5033853;28;20060;-66
2022/08/18 05:21:35;;;;;;;19.37;12.90;;;19.10;99.90;;;;;;5033700;28;20041;-66
2022/08/18 05:24:02;;;;;;;20.90;12.73;;;19.10;99.90;;;;;;5033731;28;20116;-65
2022/08/18 05:26:28;;;;;;;20.53;13.03;;;19.10;99.90;;;;;;5033837;28;20046;-65
2022/08/18 05:28:54;;;;;;;17.90;12.13;;;19.10;99.90;;;;;;5033681;28;20393;-66
2022/08/18 05:31:22;;;;;;;18.00;12.20;;;19.20;99.90;;;;;;5033615;28;20046;-66
2022/08/18 05:33:49;;;;;;;19.13;13.17;;;19.20;99.90;;;;;;5033620;28;20053;-65
2022/08/18 05:36:17;;;;;;;23.33;12.73;;;19.20;99.90;;;;;;5033500;28;20528;-65
2022/08/18 05:39:00;;;;;;;19.50;12.17;;;19.20;99.90;;;;;;5033777;28;20045;-66
2022/08/18 05:41:34;;;;;;;21.30;12.00;;;19.30;99.90;;;;;;5034012;28;20042;-66
2022/08/18 05:44:01;;;;;;;16.83;11.70;;;19.30;99.90;;;;;;5033518;28;20050;-66
2022/08/18 05:46:45;;;;;;;15.20;10.27;;;19.30;99.90;;;;;;5033440;28;20061;-66
2022/08/18 05:49:14;;;;;;;17.47;11.47;;;19.30;99.90;;;;;;5033384;28;20089;-65
2022/08/18 05:51:46;;;;;;;17.53;10.10;;;19.30;99.90;;;;;;5033493;28;20046;-66
2022/08/18 05:57:08;;;;;;;17.00;9.90;;;19.30;99.90;;;;;;5033359;28;20060;-66
2022/08/18 05:59:37;;;;;;;;;;;19.30;99.90;;;;;;5016211;28;20547;-66
2022/08/18 06:02:11;;;;;;;16.60;10.13;;;19.40;99.90;;;;;;5033258;28;19921;-66
2022/08/18 06:04:54;;;;;;;18.27;10.30;;;19.40;99.90;;;;;;5033980;28;20132;-66
2022/08/18 06:07:45;;;;;;;18.87;9.30;;;19.50;99.90;;;;;;5020968;28;20099;-66
2022/08/18 06:10:12;;;;;;;17.07;9.17;;;19.50;99.90;;;;;;5037304;28;20103;-66
2022/08/18 06:13:00;;;;;;;16.77;8.90;;;19.60;99.90;;;;;;5020615;28;20049;-66
2022/08/18 06:15:40;;;;;;;16.57;9.20;;;19.70;99.90;;;;;;5037614;28;20052;-66
2022/08/18 06:18:20;;;;;;;11.43;7.90;;;19.80;99.90;;;;;;5037561;28;20048;-66
2022/08/18 06:20:48;;;;;;;16.23;8.60;;;19.80;99.90;;;;;;5037733;28;20128;-66
2022/08/18 06:23:26;;;;;;;18.87;8.30;;;19.90;99.90;;;;;;5037261;28;20436;-65
2022/08/18 06:26:13;;;;;;;20.17;7.20;;;19.90;99.90;;;;;;5037091;28;20120;-66
2022/08/18 06:29:01;;;;;;;17.87;7.10;;;19.90;99.90;;;;;;5020397;28;20393;-66
2022/08/18 06:31:34;;;;;;;16.23;7.13;;;19.80;99.90;;;;;;5037528;28;20393;-66
2022/08/18 06:34:18;;;;;;;12.43;5.97;;;19.80;99.90;;;;;;5019264;28;20404;-66
2022/08/18 06:36:54;;;;;;;16.73;7.67;;;19.80;99.90;;;;;;5036908;28;20049;-66
2022/08/18 06:39:38;;;;;;;15.57;6.67;;;19.90;99.90;;;;;;5036906;28;20119;-66
2022/08/18 06:42:07;;;;;;;14.93;5.57;;;20.00;99.90;;;;;;5037305;28;20057;-67
2022/08/18 06:44:37;;;;;;;15.37;4.80;;;20.10;99.90;;;;;;5020289;28;20049;-66
2022/08/18 06:47:24;;;;;;;13.57;4.07;;;20.20;99.90;;;;;;5037029;28;20053;-67
2022/08/18 06:49:58;;;;;;;10.30;4.27;;;20.20;99.90;;;;;;5037217;28;20050;-67
2022/08/18 06:52:32;;;;;;;13.20;3.70;;;20.20;99.90;;;;;;5037100;28;20041;-67
2022/08/18 06:55:05;;;;;;;10.93;3.23;;;20.20;99.90;;;;;;5036714;28;20091;-67
2022/08/18 06:57:34;;;;;;;9.67;3.13;;;20.10;99.90;;;;;;5036886;28;20045;-67
2022/08/18 07:00:03;;;;;;;7.80;2.73;;;20.00;99.90;;;;;;5037006;28;20451;-67
2022/08/18 07:02:43;;;;;;;7.53;2.60;;;19.90;99.90;;;;;;5036639;28;20046;-66
2022/08/18 07:05:25;;;;;;;7.30;2.40;;;19.80;99.90;;;;;;5036099;28;20485;-66
2022/08/18 07:08:29;;;;;;;6.27;2.63;;;19.80;99.90;;;;;;5036376;28;20477;-67
2022/08/18 07:11:09;;;;;;;8.57;2.57;;;19.70;99.90;;;;;;5036883;28;20138;-68
2022/08/18 07:13:38;;;;;;;6.77;2.33;;;19.70;99.90;;;;;;5036848;28;20053;-66
2022/08/18 07:16:24;;;;;;;7.50;2.90;;;19.70;99.90;;;;;;5036046;28;20060;-70
2022/08/18 07:18:50;;;;;;;8.80;2.73;;;20.00;99.90;;;;;;5036110;28;20164;-67
2022/08/18 07:21:32;;;;;;;5.73;2.47;;;21.00;99.90;;;;;;5036832;28;20053;-67
2022/08/18 07:24:07;;;;;;;6.77;2.43;;;21.10;99.90;;;;;;5036197;28;20037;-67
2022/08/18 07:27:06;;;;;;;5.78;2.15;;;21.00;99.90;;;;;;5036160;28;20049;-66
2022/08/18 07:29:36;;;;;;;6.63;2.13;;;20.90;99.90;;;;;;5036013;28;20057;-66
2022/08/18 07:32:21;;;;;;;5.00;1.90;;;20.70;99.90;;;;;;5035960;28;20493;-66
2022/08/18 07:34:50;;;;;;;;;;;20.60;99.90;;;;;;5036427;28;20041;-66
2022/08/18 07:37:22;;;;;;;6.27;1.90;;;20.40;99.90;;;;;;5035865;28;19921;-66
2022/08/18 07:39:55;;;;;;;4.40;1.60;;;20.30;99.90;;;;;;5036138;28;20045;-66
2022/08/18 07:42:47;;;;;;;4.43;2.13;;;20.30;99.90;;;;;;5036252;28;20053;-66
2022/08/18 07:45:29;;;;;;;7.00;2.10;;;20.40;99.90;;;;;;4965804;28;20057;-66
2022/08/18 07:48:03;;;;;;;4.10;1.73;;;20.50;99.90;;;;;;5035835;28;20525;-66
2022/08/18 07:50:37;;;;;;;5.30;1.80;;;20.60;99.90;;;;;;5035649;28;20056;-66
2022/08/18 07:53:20;;;;;;;7.67;1.70;;;20.60;99.90;;;;;;5036469;28;20045;-66
2022/08/18 07:55:52;;;;;;;5.13;1.70;;;20.50;99.90;;;;;;5018423;28;20088;-67
2022/08/18 07:58:33;;;;;;;4.67;1.70;;;20.50;99.90;;;;;;5017593;28;20501;-67
2022/08/18 08:01:10;;;;;;;6.87;1.70;;;20.50;99.90;;;;;;5035469;28;20128;-66
2022/08/18 08:04:11;;;;;;;5.23;1.47;;;20.60;99.90;;;;;;5035721;28;20132;-67
2022/08/18 08:06:42;;;;;;;4.33;1.63;;;20.90;99.90;;;;;;5035590;28;20500;-66
2022/08/18 08:09:43;;;;;;;7.13;1.90;;;20.80;99.90;;;;;;5035566;28;20049;-65
2022/08/18 08:12:08;;;;;;;8.03;2.17;;;20.80;99.90;;;;;;5036055;28;20045;-66
2022/08/18 08:14:37;;;;;;;11.57;2.03;;;20.80;99.90;;;;;;5035924;28;20384;-66
2022/08/18 08:17:16;;;;;;;9.30;2.00;;;20.80;99.90;;;;;;5035129;28;20056;-66
2022/08/18 08:20:03;;;;;;;6.20;1.90;;;20.70;99.90;;;;;;5035398;28;20053;-66
2022/08/18 08:22:51;;;;;;;6.87;2.13;;;20.70;99.90;;;;;;5017309;28;20215;-65
2022/08/18 08:25:29;;;;;;;6.97;1.90;;;20.70;99.90;;;;;;5034965;28;20077;-64
2022/08/18 08:28:17;;;;;;;9.87;2.20;;;20.70;99.90;;;;;;5034524;28;20135;-67
2022/08/18 08:31:15;;;;;;;6.37;2.13;;;20.70;99.90;;;;;;5035088;28;20079;-66
2022/08/18 08:33:50;;;;;;;6.87;2.30;;;20.80;99.90;;;;;;5035000;28;20045;-66
2022/08/18 08:36:32;;;;;;;12.57;2.43;;;20.70;99.90;;;;;;5035453;28;20458;-66
2022/08/18 08:39:05;;;;;;;8.23;2.27;;;20.80;99.90;;;;;;5034666;28;20081;-66
2022/08/18 08:41:40;;;;;;;6.80;2.23;;;20.80;99.90;;;;;;5016904;28;20466;-66
2022/08/18 08:44:16;;;;;;;6.77;2.30;;;20.70;99.90;;;;;;5035068;28;20092;-66
2022/08/18 08:46:48;;;;;;;6.70;2.10;;;20.70;99.90;;;;;;5034332;28;20057;-67
2022/08/18 08:49:28;;;;;;;7.43;2.20;;;20.60;99.90;;;;;;5035209;28;20049;-66
2022/08/18 08:52:00;;;;;;;5.07;1.90;;;20.60;99.90;;;;;;5034349;28;20050;-67
2022/08/18 08:54:36;;;;;;;6.97;2.17;;;20.70;99.90;;;;;;5034850;28;20053;-70
2022/08/18 08:57:03;;;;;;;6.60;1.93;;;;;;;;;;5034344;28;20045;-70
2022/08/18 08:59:29;;;;;;;5.87;2.00;;;21.10;99.90;;;;;;5034214;28;20503;-70
2022/08/18 09:02:19;;;;;;;5.83;1.70;;;21.60;99.90;;;;;;5016586;28;20041;-68
2022/08/18 09:05:15;;;;;;;6.93;1.97;;;21.60;99.90;;;;;;5035004;28;20045;-69
2022/08/18 09:08:12;;;;;;;5.77;2.13;;;21.80;99.90;;;;;;5017478;28;20057;-68
2022/08/18 09:10:58;;;;;;;9.30;2.43;;;21.90;99.90;;;;;;5017445;28;20045;-68
2022/08/18 09:13:42;;;;;;;6.83;2.30;;;21.90;99.90;;;;;;5034301;28;20437;-72
2022/08/18 09:16:14;;;;;;;8.05;2.03;;;21.60;99.90;;;;;;5034006;28;20052;-72
2022/08/18 09:18:54;;;;;;;7.30;2.10;;;21.60;99.90;;;;;;5033924;28;20119;-69
2022/08/18 09:21:44;;;;;;;5.33;1.67;;;21.40;99.90;;;;;;5033768;28;20053;-71
2022/08/18 09:24:27;;;;;;;4.70;1.70;;;21.30;99.90;;;;;;5034708;28;20041;-70
2022/08/18 09:27:02;;;;;;;4.20;1.60;;;21.30;99.90;;;;;;5033811;28;20121;-71
2022/08/18 09:29:37;;;;;;;;;;;21.20;99.90;;;;;;5034092;28;20144;-71
2022/08/18 09:32:17;;;;;;;5.07;1.67;;;21.30;99.90;;;;;;5033688;28;19921;-68
2022/08/18 09:35:22;;;;;;;7.57;2.00;;;21.40;99.90;;;;;;5033591;28;20045;-71
2022/08/18 09:41:32;;;;;;;7.10;2.03;;;21.70;99.90;;;;;;5016136;28;20431;-74
2022/08/18 09:44:11;;;;;;;4.67;1.40;;;21.80;99.90;;;;;;5033545;28;20095;-69
2022/08/18 09:46:50;;;;;;;5.53;1.70;;;21.80;99.90;;;;;;5033298;28;20069;-69
2022/08/18 09:49:21;;;;;;;5.67;1.80;;;21.70;99.90;;;;;;5034396;28;20057;-69
2022/08/18 09:51:49;;;;;;;5.30;1.70;;;21.70;99.90;;;;;;5033409;28;20045;-66
2022/08/18 09:54:17;;;;;;;6.77;2.03;;;21.70;99.90;;;;;;5033434;28;20088;-66
2022/08/18 09:56:49;;;;;;;6.60;1.30;;;21.70;99.90;;;;;;5033884;28;20049;-66
2022/08/18 09:59:33;;;;;;;4.87;1.40;;;21.60;99.90;;;;;;5033909;28;20046;-66
2022/08/18 10:02:02;;;;;;;2.97;1.33;;;21.60;99.90;;;;;;5033284;28;20049;-66
2022/08/18 10:04:32;;;;;;;4.90;1.40;;;21.70;99.90;;;;;;5015565;28;20052;-67
2022/08/18 10:07:34;;;;;;;5.03;1.60;;;21.90;99.90;;;;;;5033592;28;20042;-67
2022/08/18 10:10:02;;;;;;;5.77;1.67;;;22.00;99.90;;;;;;4952970;29;20051;-67
2022/08/18 10:12:42;;;;;;;6.00;1.80;;;22.10;99.90;;;;;;5018949;28;20049;-66
2022/08/18 10:15:31;;;;;;;4.53;1.60;;;22.10;99.90;;;;;;5033268;28;20052;-66
2022/08/18 10:18:32;;;;;;;4.33;1.50;;;22.10;99.90;;;;;;5033267;28;20049;-66
2022/08/18 10:21:17;;;;;;;6.83;2.23;;;22.20;99.90;;;;;;5007980;28;20061;-67
2022/08/18 10:23:54;;;;;;;6.13;1.77;;;22.10;99.90;;;;;;5033240;28;20053;-66
2022/08/18 10:26:29;;;;;;;5.37;1.90;;;22.20;99.90;;;;;;5033210;28;20053;-66
2022/08/18 10:29:05;;;;;;;;;;;22.20;99.90;;;;;;5034173;28;20137;-66
2022/08/18 10:31:50;;;;;;;5.20;1.80;;;22.30;99.90;;;;;;5033092;28;19927;-67
2022/08/18 10:34:44;;;;;;;4.30;1.50;;;22.30;99.90;;;;;;5033047;28;20050;-66
2022/08/18 10:37:51;;;;;;;6.77;1.90;;;22.40;99.90;;;;;;5033160;28;20068;-66
2022/08/18 10:40:21;;;;;;;5.63;1.70;;;22.30;99.90;;;;;;5029582;28;20481;-66
2022/08/18 10:42:59;;;;;;;5.37;1.60;;;22.40;99.90;;;;;;5033187;28;20060;-67
2022/08/18 10:45:29;;;;;;;9.93;1.87;;;22.40;99.90;;;;;;5033027;28;20053;-72
2022/08/18 10:48:10;;;;;;;5.50;1.40;;;22.40;99.90;;;;;;5032794;28;20481;-69
2022/08/18 10:51:10;;;;;;;4.47;1.40;;;22.30;99.90;;;;;;5033496;28;20106;-68
2022/08/18 10:53:53;;;;;;;6.33;1.70;;;22.20;99.90;;;;;;5036663;28;20053;-66
2022/08/18 10:56:33;;;;;;;3.73;1.60;;;;;;;;;;5036593;28;20060;-67
2022/08/18 10:59:17;;;;;;;6.17;1.77;;;21.90;99.90;;;;;;5036503;28;20049;-67
2022/08/18 11:02:09;;;;;;;5.33;1.70;;;22.00;99.90;;;;;;5036673;28;20485;-66
2022/08/18 11:04:39;;;;;;;4.83;1.40;;;22.10;99.90;;;;;;5037271;28;20055;-66
2022/08/18 11:07:14;;;;;;;3.90;2.10;;;22.20;99.90;;;;;;5019230;28;20056;-66
2022/08/18 11:09:41;;;;;;;;;;;22.40;99.90;;;;;;5037112;28;20060;-66
2022/08/18 11:12:10;;;;;;;7.30;1.77;;;22.60;99.90;;;;;;5036588;28;20272;-66
2022/08/18 11:15:16;;;;;;;4.60;1.60;;;22.60;99.90;;;;;;5036233;28;20077;-66
2022/08/18 11:17:51;;;;;;;4.43;1.80;;;22.70;99.90;;;;;;5036428;28;20485;-66
2022/08/18 11:20:20;;;;;;;4.65;1.40;;;22.70;99.90;;;;;;5036432;28;20045;-66
2022/08/18 11:22:56;;;;;;;3.07;1.57;;;22.70;99.90;;;;;;5036528;28;20350;-66
2022/08/18 11:25:34;;;;;;;2.97;1.37;;;22.70;99.90;;;;;;5036546;28;20046;-66
2022/08/18 11:28:01;;;;;;;4.97;1.40;;;22.70;99.90;;;;;;5036848;28;20447;-66
2022/08/18 11:30:35;;;;;;;3.83;1.40;;;22.70;99.90;;;;;;5035656;28;20512;-66
2022/08/18 11:33:02;;;;;;;3.70;1.48;;;22.70;99.90;;;;;;5035984;28;20052;-66
2022/08/18 11:35:42;;;;;;;3.37;1.40;;;22.70;99.90;;;;;;5035902;28;20084;-66
2022/08/18 11:38:12;;;;;;;3.30;1.57;;;22.80;99.90;;;;;;5035911;28;20053;-66
2022/08/18 11:40:44;;;;;;;4.03;1.63;;;22.70;99.90;;;;;;5035771;28;20053;-66
2022/08/18 11:43:34;;;;;;;3.40;1.50;;;22.70;99.90;;;;;;5035799;28;20088;-66
2022/08/18 11:46:32;;;;;;;4.60;1.60;;;22.70;99.90;;;;;;5035844;28;20069;-67
2022/08/18 11:49:16;;;;;;;5.37;1.60;;;22.70;99.90;;;;;;5024836;28;20057;-66
2022/08/18 11:52:01;;;;;;;6.13;1.40;;;22.70;99.90;;;;;;5035578;28;20045;-66
2022/08/18 11:54:40;;;;;;;3.90;1.30;;;22.70;99.90;;;;;;5036184;28;20469;-66
2022/08/18 11:57:30;;;;;;;4.77;1.93;;;22.70;99.90;;;;;;5018593;28;20373;-66
2022/08/18 11:59:56;;;;;;;5.70;1.80;;;22.70;99.90;;;;;;5035478;28;20045;-66
2022/08/18 12:02:24;;;;;;;4.27;1.83;;;22.70;99.90;;;;;;5035281;28;20048;-66
2022/08/18 12:04:56;;;;;;;3.70;1.50;;;22.80;99.90;;;;;;5034802;28;20053;-66
2022/08/18 12:07:33;;;;;;;3.97;1.60;;;22.80;99.90;;;;;;5035077;28;20045;-67
2022/08/18 12:10:22;;;;;;;4.87;2.00;;;22.80;99.90;;;;;;5035300;28;20049;-67
2022/08/18 12:12:51;;;;;;;3.60;1.50;;;22.90;99.90;;;;;;5035745;28;20107;-67
2022/08/18 12:15:17;;;;;;;3.43;1.70;;;22.90;99.90;;;;;;5035198;28;20050;-67
2022/08/18 12:17:44;;;;;;;5.80;1.70;;;23.00;99.90;;;;;;5035097;28;20049;-67
2022/08/18 12:20:11;;;;;;;5.30;1.53;;;23.10;99.90;;;;;;5035644;28;20045;-67
2022/08/18 12:22:41;;;;;;;2.90;1.40;;;23.20;99.90;;;;;;5017374;28;20109;-66
2022/08/18 12:25:11;;;;;;;3.13;1.60;;;23.30;99.90;;;;;;5035560;28;20045;-67
2022/08/18 12:27:36;;;;;;;5.47;1.60;;;23.30;99.90;;;;;;5034923;28;20088;-67
2022/08/18 12:30:04;;;;;;;3.87;1.63;;;23.40;99.90;;;;;;5034834;28;20081;-66
2022/08/18 12:32:32;;;;;;;3.23;1.60;;;23.40;99.90;;;;;;5035383;28;20057;-66
2022/08/18 12:34:59;;;;;;;8.87;2.90;;;23.40;99.90;;;;;;5034840;28;20087;-66
2022/08/18 12:37:27;;;;;;;4.17;1.60;;;23.30;99.90;;;;;;5035119;28;20052;-66
2022/08/18 12:39:54;;;;;;;4.10;1.67;;;23.30;99.90;;;;;;5035472;28;20052;-66
2022/08/18 12:42:20;;;;;;;4.37;1.80;;;23.30;99.90;;;;;;5034714;28;20045;-66
2022/08/18 12:44:46;;;;;;;4.30;1.73;;;23.20;99.90;;;;;;5034604;28;20460;-67
2022/08/18 12:47:16;;;;;;;4.37;1.90;;;23.20;99.90;;;;;;5016828;28;20084;-66
2022/08/18 12:49:42;;;;;;;3.60;1.77;;;23.20;99.90;;;;;;5017004;28;20107;-68
2022/08/18 12:52:09;;;;;;;4.00;1.80;;;23.10;99.90;;;;;;5034738;28;20100;-66
2022/08/18 12:54:34;;;;;;;4.03;1.90;;;23.00;99.90;;;;;;5034418;28;20041;-66
2022/08/18 12:57:04;;;;;;;5.10;1.90;;;23.00;99.90;;;;;;5034337;28;20052;-67
2022/08/18 12:59:30;;;;;;;3.53;1.60;;;23.10;99.90;;;;;;5034056;28;20489;-66
2022/08/18 13:01:55;;;;;;;4.10;1.80;;;23.00;99.90;;;;;;5034726;28;20053;-67
2022/08/18 13:04:21;;;;;;;4.73;1.80;;;;;;;;;;5016609;28;20497;-67
2022/08/18 13:06:52;;;;;;;4.87;1.80;;;;;;;;;;5034663;28;20041;-67
2022/08/18 13:09:19;;;;;;;3.73;2.27;;;23.00;99.90;;;;;;5034090;28;20080;-66
2022/08/18 13:11:45;;;;;;;6.33;1.90;;;23.00;99.90;;;;;;5017480;28;20492;-67
2022/08/18 13:14:11;;;;;;;3.30;1.77;;;23.00;99.90;;;;;;4999692;28;20053;-66
2022/08/18 13:16:39;;;;;;;3.30;1.63;;;23.10;99.90;;;;;;5033986;28;20132;-66
2022/08/18 13:19:07;;;;;;;4.80;2.10;;;23.20;99.90;;;;;;5034631;28;20107;-67
2022/08/18 13:21:33;;;;;;;3.93;1.70;;;23.30;99.90;;;;;;5033696;28;20481;-66
2022/08/18 13:23:59;;;;;;;3.37;1.90;;;23.40;99.90;;;;;;5033736;28;20047;-67
2022/08/18 13:26:32;;;;;;;2.50;1.40;;;23.40;99.90;;;;;;5033696;28;20092;-67